Time;durP1;ratioP1;P1;durP2;ratioP2;P2;SDS_P1;SDS_P2;PMS_P1;PMS_P2;Temp;Humidity;BMP_temperature;BMP_pressure;BME280_temperature;BME280_humidity;BME280_pressure;Samples;Min_cycle;Max_cycle;Signal;HPM_P1;HPM_P2
2022/06/01 00:01:11;;;;;;;22.40;20.40;;;;;;;9.29;99.02;101192.50;6502187;23;20056;-83
2022/06/01 00:03:42;;;;;;;23.93;21.60;;;;;;;9.16;98.92;101190.75;6502243;23;20043;-82
2022/06/01 00:06:14;;;;;;;23.57;21.40;;;;;;;9.31;99.48;101193.38;6501061;23;20012;-84
2022/06/01 00:08:46;;;;;;;24.50;22.23;;;;;;;9.26;99.67;101188.16;6499594;23;20004;-83
2022/06/01 00:11:18;;;;;;;21.77;19.77;;;;;;;9.25;99.74;101195.97;6499975;23;20418;-83
2022/06/01 00:13:49;;;;;;;21.70;19.73;;;;;;;9.16;99.52;101193.38;6502449;23;20007;-78
2022/06/01 00:16:22;;;;;;;22.67;20.63;;;;;;;9.11;99.65;101189.06;6500586;23;20499;-81
2022/06/01 00:18:54;;;;;;;23.60;21.40;;;;;;;9.07;99.68;101196.84;6500737;23;20004;-81
2022/06/01 00:21:25;;;;;;;23.30;21.30;;;;;;;9.05;99.69;101196.84;6502215;23;20011;-82
2022/06/01 00:23:56;;;;;;;24.43;22.17;;;;;;;9.04;100.00;101191.66;6500895;23;20131;-81
2022/06/01 00:26:28;;;;;;;24.57;22.37;;;;;;;9.10;100.00;101196.84;6501594;23;20004;-80
2022/06/01 00:28:59;;;;;;;22.33;20.03;;;;;;;9.20;100.00;101197.72;6501817;23;20039;-83
2022/06/01 00:31:31;;;;;;;23.70;21.50;;;;;;;9.09;100.00;101198.56;6502018;23;20378;-79
2022/06/01 00:34:03;;;;;;;24.57;22.37;;;;;;;9.26;100.00;101198.56;6500524;23;20004;-79
2022/06/01 00:36:37;;;;;;;;;;;;;;;9.31;99.94;101196.81;6502392;23;20007;-84
2022/06/01 00:39:09;;;;;;;24.85;22.52;;;;;;;9.32;100.00;101208.09;6501112;23;19911;-84
2022/06/01 00:41:40;;;;;;;23.83;21.23;;;;;;;9.43;100.00;101198.53;6500289;23;20582;-84
2022/06/01 00:44:12;;;;;;;24.43;22.30;;;;;;;9.35;100.00;101192.47;6500056;23;20054;-81
2022/06/01 00:46:43;;;;;;;23.97;21.77;;;;;;;9.25;99.94;101195.97;6500488;23;20035;-78
2022/06/01 00:49:21;;;;;;;23.43;21.43;;;;;;;9.37;100.00;101195.97;6501139;23;20034;-83
2022/06/01 00:51:53;;;;;;;23.15;21.13;;;;;;;9.29;100.00;101197.72;6501084;23;20012;-84
2022/06/01 00:54:26;;;;;;;23.20;20.80;;;;;;;9.22;99.75;101196.81;6502165;23;20138;-85
2022/06/01 00:57:13;;;;;;;;;;;;;;;9.15;99.49;101205.50;6502206;23;20046;-82
2022/06/01 00:59:46;;;;;;;24.73;22.35;;;;;;;9.03;99.57;101196.00;6499605;23;19955;-84
2022/06/01 01:02:17;;;;;;;24.38;22.30;;;;;;;8.90;100.00;101187.31;6499985;23;20015;-82
2022/06/01 01:04:49;;;;;;;25.07;22.87;;;;;;;8.87;100.00;101189.03;6499729;23;20008;-81
2022/06/01 01:07:20;;;;;;;25.63;23.03;;;;;;;8.80;100.00;101190.75;6498982;23;20066;-82
2022/06/01 01:09:52;;;;;;;25.80;23.43;;;;;;;8.72;100.00;101190.75;6499210;23;20429;-84
2022/06/01 01:12:23;;;;;;;27.50;24.90;;;;;;;8.75;100.00;101195.94;6501600;23;20011;-83
2022/06/01 01:14:55;;;;;;;25.57;23.33;;;;;;;8.70;100.00;101194.22;6500270;23;20004;-84
2022/06/01 01:17:26;;;;;;;28.23;25.70;;;;;;;8.86;100.00;101189.91;6498776;23;20057;-83
2022/06/01 01:19:58;;;;;;;29.47;26.67;;;;;;;8.99;100.00;101193.38;6498863;23;20030;-82
2022/06/01 01:22:44;;;;;;;29.90;26.07;;;;;;;8.87;100.00;101183.81;6500414;23;20008;-84
2022/06/01 01:25:21;;;;;;;27.95;25.27;;;;;;;8.92;100.00;101184.72;6499151;23;20063;-84
2022/06/01 01:27:57;;;;;;;28.05;25.38;;;;;;;8.85;100.00;101183.81;6500498;23;20015;-81
2022/06/01 01:30:37;;;;;;;29.33;26.25;;;;;;;8.83;100.00;101179.50;6500310;23;20000;-84
2022/06/01 01:33:18;;;;;;;29.88;26.95;;;;;;;8.81;100.00;101176.06;6502402;23;20011;-83
2022/06/01 01:35:56;;;;;;;29.00;26.35;;;;;;;8.75;100.00;101174.28;6502622;23;20000;-84
2022/06/01 01:38:43;;;;;;;30.33;27.42;;;;;;;8.79;100.00;101177.75;6500695;23;20008;-82
2022/06/01 01:41:36;;;;;;;29.00;26.20;;;;;;;8.84;100.00;101176.91;6499293;23;20065;-84
2022/06/01 01:44:13;;;;;;;29.33;26.60;;;;;;;8.93;100.00;101181.22;6500604;23;20422;-86
2022/06/01 01:46:49;;;;;;;32.50;29.33;;;;;;;8.83;100.00;101177.75;6503192;23;20047;-81
2022/06/01 01:49:30;;;;;;;31.13;28.33;;;;;;;8.96;100.00;101189.03;6503014;23;20065;-84
2022/06/01 01:52:05;;;;;;;30.08;27.02;;;;;;;8.84;100.00;101191.63;6501585;23;20016;-83
2022/06/01 01:54:54;;;;;;;33.05;29.85;;;;;;;8.86;100.00;101195.97;6498742;23;20012;-81
2022/06/01 01:57:37;;;;;;;33.22;30.23;;;;;;;8.90;100.00;101183.84;6496877;23;20507;-79
2022/06/01 02:00:17;;;;;;;34.08;30.77;;;;;;;8.86;100.00;101198.56;6497972;23;20034;-79
2022/06/01 02:03:06;;;;;;;32.13;29.23;;;;;;;8.85;100.00;101201.16;6497050;23;20004;-79
2022/06/01 02:08:46;;;;;;;32.22;29.33;;;;;;;8.68;100.00;101188.16;6498369;23;20024;-79
2022/06/01 02:14:37;;;;;;;31.48;28.27;;;;;;;8.58;100.00;101182.06;6497834;23;20016;-82
2022/06/01 02:17:15;;;;;;;33.55;30.30;;;;;;;8.49;100.00;101188.13;6498114;23;20112;-80
2022/06/01 02:19:55;;;;;;;33.42;30.35;;;;;;;8.37;100.00;101188.94;6498162;23;20418;-79
2022/06/01 02:22:27;;;;;;;34.55;31.15;;;;;;;8.42;100.00;101185.47;6498196;23;20381;-77
2022/06/01 02:24:58;;;;;;;35.67;32.23;;;;;;;8.37;100.00;101188.03;6498201;23;20001;-84
2022/06/01 02:27:30;;;;;;;38.00;34.07;;;;;;;8.27;100.00;101187.16;6498741;23;20008;-80
2022/06/01 02:30:08;;;;;;;35.30;31.77;;;;;;;8.34;100.00;101190.63;6497601;23;20061;-81
2022/06/01 02:32:41;;;;;;;35.85;32.10;;;;;;;8.32;100.00;101182.84;6497256;23;20069;-80
2022/06/01 02:35:16;;;;;;;35.90;32.63;;;;;;;8.27;100.00;101191.47;6498305;23;20028;-80
2022/06/01 02:37:52;;;;;;;34.03;30.67;;;;;;;8.27;100.00;101188.88;6497637;23;20011;-83
2022/06/01 02:40:28;;;;;;;34.83;31.38;;;;;;;8.23;100.00;101195.81;6498762;23;20015;-85
2022/06/01 02:43:00;;;;;;;34.70;31.42;;;;;;;8.20;100.00;101190.59;6498230;23;20000;-81
2022/06/01 02:45:31;;;;;;;36.03;32.17;;;;;;;8.14;100.00;101186.22;6498687;23;20350;-85
2022/06/01 02:48:04;;;;;;;32.47;29.40;;;;;;;8.15;100.00;101190.56;6499205;23;20012;-85
2022/06/01 02:50:36;;;;;;;;;;;;;;;8.07;100.00;101192.28;6500035;23;20008;-83
2022/06/01 02:53:07;;;;;;;34.15;30.85;;;;;;;8.06;100.00;101187.94;6447569;23;19919;-84
2022/06/01 02:55:38;;;;;;;34.57;31.07;;;;;;;8.01;100.00;101187.06;6467382;23;20016;-83
2022/06/01 02:58:11;;;;;;;34.93;31.57;;;;;;;7.99;100.00;101188.78;6466727;23;20059;-76
2022/06/01 03:00:42;;;;;;;33.35;30.10;;;;;;;7.92;100.00;101185.31;6466600;23;20019;-85
2022/06/01 03:03:14;;;;;;;32.40;29.37;;;;;;;7.85;100.00;101183.53;6468077;23;20005;-78
2022/06/01 03:05:45;;;;;;;36.93;33.23;;;;;;;7.74;100.00;101177.41;6467789;23;20005;-78
2022/06/01 03:08:16;;;;;;;33.50;30.20;;;;;;;7.74;100.00;101191.25;6467945;23;20418;-80
2022/06/01 03:10:48;;;;;;;33.47;29.87;;;;;;;7.76;100.00;101197.34;6467140;23;20036;-77
2022/06/01 03:13:21;;;;;;;36.03;31.83;;;;;;;7.78;100.00;101192.16;6466765;23;20012;-76
2022/06/01 03:15:53;;;;;;;32.28;28.90;;;;;;;7.72;100.00;101194.72;6468185;23;20011;-85
2022/06/01 03:18:25;;;;;;;32.20;28.75;;;;;;;7.65;100.00;101192.06;6468065;23;20005;-81
2022/06/01 03:20:57;;;;;;;33.73;30.23;;;;;;;7.61;100.00;101195.50;6468373;23;20011;-83
2022/06/01 03:23:29;;;;;;;32.83;29.30;;;;;;;7.57;100.00;101193.75;6468513;23;20009;-79
2022/06/01 03:26:01;;;;;;;32.45;29.10;;;;;;;7.58;100.00;101198.09;6467337;23;20062;-79
2022/06/01 03:28:32;;;;;;;32.60;29.40;;;;;;;7.57;100.00;101196.34;6467540;23;20010;-84
2022/06/01 03:31:06;;;;;;;31.53;27.67;;;;;;;7.51;100.00;101196.31;6467468;23;20012;-82
2022/06/01 03:33:37;;;;;;;31.70;28.50;;;;;;;7.52;100.00;101185.09;6468336;23;20004;-82
2022/06/01 03:36:09;;;;;;;32.60;29.13;;;;;;;7.52;100.00;101192.88;6467846;23;20481;-84
2022/06/01 03:38:41;;;;;;;30.40;26.95;;;;;;;7.51;100.00;101198.03;6467654;23;20030;-84
2022/06/01 03:41:13;;;;;;;31.17;27.97;;;;;;;7.48;100.00;101191.09;6468612;23;20474;-84
2022/06/01 03:46:34;;;;;;;28.42;25.65;;;;;;;7.60;100.00;101193.78;6470087;23;20078;-81
2022/06/01 03:49:06;;;;;;;28.80;25.73;;;;;;;7.55;100.00;101195.47;6482613;23;20311;-83
2022/06/01 03:51:37;;;;;;;29.10;25.38;;;;;;;7.57;100.00;101193.75;6491802;23;20023;-83
2022/06/01 03:54:09;;;;;;;28.50;25.70;;;;;;;7.55;100.00;101197.19;6518947;23;20003;-80
2022/06/01 03:56:42;;;;;;;28.80;25.77;;;;;;;7.55;100.00;101198.06;6517337;23;20008;-78
2022/06/01 03:59:13;;;;;;;27.73;24.92;;;;;;;7.57;100.00;101198.94;6515069;23;20004;-83
2022/06/01 04:01:45;;;;;;;27.80;24.97;;;;;;;7.57;100.00;101200.69;6512608;23;20081;-83
2022/06/01 04:04:16;;;;;;;28.47;25.50;;;;;;;7.54;100.00;101205.84;6518843;23;20015;-81
2022/06/01 04:06:47;;;;;;;27.17;24.50;;;;;;;7.56;100.00;101196.34;6520292;23;20015;-78
2022/06/01 04:09:19;;;;;;;26.83;24.13;;;;;;;7.55;100.00;101207.56;6519092;23;20078;-84
2022/06/01 04:11:51;;;;;;;27.73;24.87;;;;;;;7.59;100.00;101202.41;6518806;23;20081;-80
2022/06/01 04:14:24;;;;;;;27.38;24.65;;;;;;;7.59;100.00;101205.00;6518134;23;20031;-82
2022/06/01 04:16:55;;;;;;;27.30;23.85;;;;;;;7.66;100.00;101203.31;6505180;23;20007;-85
2022/06/01 04:19:27;;;;;;;27.57;24.23;;;;;;;7.63;100.00;101209.38;6499731;23;20012;-82
2022/06/01 04:21:58;;;;;;;26.43;23.73;;;;;;;7.63;100.00;101208.47;6502155;23;20802;-85
2022/06/01 04:24:34;;;;;;;25.60;22.37;;;;;;;7.64;100.00;101215.41;6500935;23;20027;-82
2022/06/01 04:27:05;;;;;;;26.25;23.50;;;;;;;7.69;100.00;101211.13;6500325;23;20004;-83
2022/06/01 04:29:37;;;;;;;26.93;22.97;;;;;;;7.69;100.00;101210.25;6500341;23;20012;-81
2022/06/01 04:32:13;;;;;;;26.60;23.73;;;;;;;7.70;100.00;101212.88;6499571;23;20338;-81
2022/06/01 04:34:44;;;;;;;27.67;23.48;;;;;;;7.73;100.00;101209.41;6499701;23;20056;-82
2022/06/01 04:37:16;;;;;;;39.13;25.43;;;;;;;7.72;100.00;101210.28;6500474;23;20334;-81
2022/06/01 04:39:47;;;;;;;28.13;24.40;;;;;;;7.74;100.00;101216.34;6499061;23;20008;-81
2022/06/01 04:42:19;;;;;;;28.77;22.87;;;;;;;7.74;100.00;101219.78;6499263;23;20007;-83
2022/06/01 04:44:50;;;;;;;25.90;23.27;;;;;;;7.79;100.00;101215.53;6499365;23;20082;-82
2022/06/01 04:47:22;;;;;;;26.60;23.73;;;;;;;7.86;100.00;101221.59;6498466;23;20031;-85
2022/06/01 04:49:53;;;;;;;27.10;24.20;;;;;;;7.99;100.00;101218.19;6497322;23;20008;-84
2022/06/01 04:52:24;;;;;;;33.13;23.57;;;;;;;8.10;100.00;101217.38;6498923;23;20078;-83
2022/06/01 04:54:56;;;;;;;25.10;22.40;;;;;;;8.16;100.00;101226.09;6499756;23;20011;-86
2022/06/01 04:57:27;;;;;;;25.03;20.47;;;;;;;8.17;100.00;101222.59;6500740;23;20008;-85
2022/06/01 04:59:59;;;;;;;23.90;21.40;;;;;;;8.25;100.00;101229.56;6499660;23;20023;-83
2022/06/01 05:02:30;;;;;;;23.97;21.50;;;;;;;8.28;100.00;101227.00;6498412;23;20004;-86
2022/06/01 05:05:02;;;;;;;24.57;19.70;;;;;;;8.34;100.00;101229.59;6501870;23;20012;-84
2022/06/01 05:07:33;;;;;;;23.77;19.73;;;;;;;8.40;100.00;101225.31;6499320;23;20075;-84
2022/06/01 05:10:06;;;;;;;23.30;18.70;;;;;;;8.40;100.00;101229.63;6500648;23;20032;-85
2022/06/01 05:12:37;;;;;;;23.33;17.48;;;;;;;8.42;100.00;101224.44;6499480;23;20037;-83
2022/06/01 05:15:09;;;;;;;18.53;16.63;;;;;;;8.43;100.00;101221.88;6499603;23;20105;-84
2022/06/01 05:17:41;;;;;;;21.43;16.80;;;;;;;8.49;100.00;101213.25;6500831;23;20008;-81
2022/06/01 05:20:13;;;;;;;21.93;16.57;;;;;;;8.50;100.00;101218.44;6499091;23;20010;-79
2022/06/01 05:22:45;;;;;;;23.23;16.75;;;;;;;8.56;100.00;101220.16;6498678;23;20008;-83
2022/06/01 05:25:16;;;;;;;18.67;16.40;;;;;;;8.63;100.00;101221.94;6498971;23;20389;-82
2022/06/01 05:27:48;;;;;;;18.60;16.00;;;;;;;8.71;100.00;101217.63;6499001;23;20000;-82
2022/06/01 05:30:19;;;;;;;19.93;16.97;;;;;;;8.80;100.00;101216.75;6499090;23;20500;-83
2022/06/01 05:32:51;;;;;;;18.40;16.20;;;;;;;8.86;100.00;101226.31;6499028;23;20418;-83
2022/06/01 05:35:22;;;;;;;22.57;15.97;;;;;;;8.92;100.00;101219.38;6499104;23;20004;-82
2022/06/01 05:37:54;;;;;;;25.07;17.73;;;;;;;9.03;100.00;101226.31;6500481;23;20349;-83
2022/06/01 05:40:25;;;;;;;19.63;15.63;;;;;;;9.12;100.00;101219.38;6499905;23;20003;-84
2022/06/01 05:42:58;;;;;;;24.83;16.90;;;;;;;9.25;100.00;101222.84;6498574;23;20057;-80
2022/06/01 05:45:30;;;;;;;26.58;16.02;;;;;;;9.33;100.00;101228.06;6499019;23;20004;-84
2022/06/01 05:48:03;;;;;;;20.63;15.63;;;;;;;9.43;100.00;101216.75;6499371;23;20070;-81
2022/06/01 05:50:34;;;;;;;22.20;15.88;;;;;;;9.54;100.00;101224.56;6499067;23;20004;-84
2022/06/01 05:53:06;;;;;;;24.57;16.67;;;;;;;9.66;100.00;101229.75;6498105;23;20023;-80
2022/06/01 05:55:39;;;;;;;18.13;15.13;;;;;;;9.73;100.00;101230.59;6498147;23;20135;-82
2022/06/01 05:58:15;;;;;;;18.42;14.95;;;;;;;9.85;99.79;101234.91;6499273;23;20035;-86
2022/06/01 06:00:49;;;;;;;19.08;15.38;;;;;;;10.02;99.88;101237.47;6499402;23;20079;-84
2022/06/01 06:03:23;;;;;;;20.45;15.27;;;;;;;10.13;99.45;101230.47;6499250;23;20086;-86
2022/06/01 06:06:17;;;;;;;18.58;14.43;;;;;;;10.29;98.83;101240.81;6500295;23;20088;-83
2022/06/01 06:09:00;;;;;;;22.23;14.95;;;;;;;10.40;98.42;101232.13;6499608;23;20000;-81
2022/06/01 06:11:34;;;;;;;19.40;14.57;;;;;;;10.61;98.93;101237.22;6499147;23;20008;-86
2022/06/01 06:14:07;;;;;;;15.70;13.30;;;;;;;10.64;97.35;101234.63;6472959;23;20023;-85
2022/06/01 06:16:43;;;;;;;19.33;13.38;;;;;;;10.73;96.55;101238.03;6498873;23;20112;-85
2022/06/01 06:19:17;;;;;;;15.48;13.77;;;;;;;10.87;97.02;101229.28;6499523;23;20014;-86
2022/06/01 06:21:49;;;;;;;18.50;13.05;;;;;;;10.95;97.12;101238.75;6499136;23;20027;-83
2022/06/01 06:24:21;;;;;;;16.60;13.00;;;;;;;10.94;95.69;101243.97;6499157;23;20206;-86
2022/06/01 06:26:52;;;;;;;18.23;13.70;;;;;;;10.98;95.18;101255.25;6499389;23;20008;-84
2022/06/01 06:29:24;;;;;;;16.90;12.43;;;;;;;11.06;94.74;101256.06;6499103;23;20083;-86
2022/06/01 06:31:55;;;;;;;15.90;12.93;;;;;;;11.22;95.29;101260.31;6500653;23;20004;-85
2022/06/01 06:34:27;;;;;;;15.33;12.33;;;;;;;11.23;94.13;101269.00;6499579;23;20111;-80
2022/06/01 06:36:58;;;;;;;18.13;12.73;;;;;;;11.32;94.52;101264.56;6499595;23;20082;-86
2022/06/01 06:39:30;;;;;;;19.97;13.17;;;;;;;11.40;93.83;101272.34;6499595;23;20004;-85
2022/06/01 06:42:01;;;;;;;20.97;13.40;;;;;;;11.41;94.25;101278.41;6502167;23;20007;-86
2022/06/01 06:44:35;;;;;;;17.40;12.20;;;;;;;11.49;95.04;101287.94;6501173;23;20027;-87
2022/06/01 06:47:07;;;;;;;14.32;11.48;;;;;;;11.55;93.92;101289.63;6483288;23;20004;-84
2022/06/01 06:49:38;;;;;;;22.17;13.07;;;;;;;11.60;93.76;101280.00;6511928;23;20011;-83
2022/06/01 06:52:09;;;;;;;14.23;10.93;;;;;;;11.64;92.29;101292.16;6501982;23;20022;-79
2022/06/01 06:54:41;;;;;;;13.10;11.47;;;;;;;11.64;91.78;101288.66;6513047;23;20556;-88
2022/06/01 06:57:12;;;;;;;18.77;11.90;;;;;;;11.70;91.71;101285.13;6505340;23;20004;-88
2022/06/01 06:59:44;;;;;;;19.43;11.17;;;;;;;11.80;92.24;101299.81;6507996;23;20004;-87
2022/06/01 07:02:16;;;;;;;16.67;11.02;;;;;;;11.72;91.14;101296.41;6508551;23;20008;-85
2022/06/01 07:04:47;;;;;;;20.43;11.13;;;;;;;11.80;91.77;101289.38;6511923;23;20004;-80
2022/06/01 07:07:19;;;;;;;15.63;11.20;;;;;;;11.80;90.13;101297.22;6518198;23;20004;-88
2022/06/01 07:09:50;;;;;;;15.13;10.50;;;;;;;11.89;89.86;101298.88;6517129;23;20064;-84
2022/06/01 07:12:22;;;;;;;12.07;9.73;;;;;;;11.88;88.75;101303.22;6517662;22;20012;-84
2022/06/01 07:14:53;;;;;;;13.57;10.63;;;;;;;12.12;89.97;101304.75;6523095;22;20418;-83
2022/06/01 07:17:25;;;;;;;14.00;10.43;;;;;;;12.17;88.57;101296.88;6517431;23;20106;-83
2022/06/01 07:19:56;;;;;;;14.50;10.80;;;;;;;12.35;89.16;101301.03;6519693;23;20046;-81
2022/06/01 07:22:29;;;;;;;16.97;9.53;;;;;;;12.49;87.04;101295.63;6503355;23;20012;-88
2022/06/01 07:25:00;;;;;;;14.00;9.52;;;;;;;12.63;87.05;101296.31;6505606;23;20074;-86
2022/06/01 07:27:31;;;;;;;13.13;9.57;;;;;;;12.81;87.36;101289.97;6504348;23;20012;-82
2022/06/01 07:30:05;;;;;;;12.83;9.17;;;;;;;12.84;84.28;101304.75;6505276;23;20418;-88
2022/06/01 07:32:36;;;;;;;9.10;8.15;;;;;;;12.95;84.93;101295.00;6502046;23;20008;-87
2022/06/01 07:35:08;;;;;;;15.67;9.40;;;;;;;13.02;83.36;101308.88;6500306;23;20012;-88
2022/06/01 07:43:22;;;;;;;11.88;7.18;;;;;;;13.26;80.93;101298.00;6503004;23;20035;-86
2022/06/01 07:45:54;;;;;;;12.97;7.50;;;;;;;13.34;80.63;101300.53;6505903;23;20032;-85
2022/06/01 07:48:25;;;;;;;9.77;7.17;;;;;;;13.52;79.95;101291.53;6505056;23;20000;-86
2022/06/01 07:50:56;;;;;;;10.00;6.60;;;;;;;13.97;79.19;101298.59;6502971;23;20004;-88
2022/06/01 07:53:28;;;;;;;10.13;5.97;;;;;;;14.02;74.81;101299.38;6507947;23;20012;-89
2022/06/01 07:55:59;;;;;;;11.30;6.30;;;;;;;14.09;74.29;101303.63;6510999;23;20014;-80
2022/06/01 07:58:31;;;;;;;6.97;4.07;;;;;;;14.10;72.67;101302.69;6505267;23;20040;-85
2022/06/01 08:01:03;;;;;;;7.23;5.30;;;;;;;13.88;72.03;101307.50;6514733;23;20004;-83
2022/06/01 08:03:35;;;;;;;11.27;6.25;;;;;;;14.10;72.37;101310.56;6507287;23;20004;-86
2022/06/01 08:06:06;;;;;;;9.45;5.63;;;;;;;14.15;72.42;101308.75;6505848;23;20004;-90
2022/06/01 08:08:37;;;;;;;8.73;5.10;;;;;;;14.25;69.99;101316.41;6507637;23;20015;-86
2022/06/01 08:11:09;;;;;;;11.03;5.13;;;;;;;14.39;70.74;101309.13;6505090;23;20383;-91
2022/06/01 08:13:40;;;;;;;9.67;5.43;;;;;;;14.46;68.98;101315.13;6504307;23;20004;-88
2022/06/01 08:16:12;;;;;;;7.60;5.40;;;;;;;14.49;66.72;101305.44;6505640;23;20008;-83
2022/06/01 08:18:44;;;;;;;8.20;5.63;;;;;;;14.66;67.62;101310.34;6504832;23;20036;-87
2022/06/01 08:21:15;;;;;;;7.23;5.93;;;;;;;14.76;67.73;101317.16;6503195;23;20394;-87
2022/06/01 08:23:46;;;;;;;8.07;5.37;;;;;;;14.73;66.68;101313.72;6502933;23;20010;-84
2022/06/01 08:26:18;;;;;;;6.73;4.43;;;;;;;14.84;67.46;101316.09;6504417;23;20031;-89
2022/06/01 08:28:49;;;;;;;4.73;3.13;;;;;;;14.68;62.67;101308.59;6503583;23;20070;-88
2022/06/01 08:31:21;;;;;;;6.50;3.80;;;;;;;15.05;63.47;101299.00;6502685;23;20016;-85
2022/06/01 08:34:01;;;;;;;5.30;3.77;;;;;;;15.18;62.76;101308.31;6503310;23;20333;-87
2022/06/01 08:36:32;;;;;;;7.30;4.65;;;;;;;15.19;64.93;101294.28;6499585;23;20273;-86
2022/06/01 08:39:03;;;;;;;6.87;4.47;;;;;;;15.41;62.28;101296.41;6498810;23;20019;-86
2022/06/01 08:41:37;;;;;;;6.80;3.57;;;;;;;15.49;60.38;101294.47;6502546;23;20357;-85
2022/06/01 08:44:23;;;;;;;8.55;4.50;;;;;;;15.68;62.96;101292.19;6502255;23;20479;-86
2022/06/01 08:46:58;;;;;;;7.50;4.78;;;;;;;15.36;62.40;101288.66;6503193;23;20906;-87
2022/06/01 08:49:33;;;;;;;7.55;5.25;;;;;;;15.32;64.58;101292.22;6500725;23;20004;-86
2022/06/01 08:52:05;;;;;;;5.80;4.50;;;;;;;15.44;66.64;101291.06;6499124;23;20058;-79
2022/06/01 08:54:36;;;;;;;5.90;4.20;;;;;;;15.55;63.13;101293.44;6501729;23;20481;-84
2022/06/01 08:57:16;;;;;;;7.50;5.17;;;;;;;15.55;63.46;101304.78;6502522;23;20018;-84
2022/06/01 09:00:14;;;;;;;6.57;4.38;;;;;;;15.41;59.43;101297.28;6502583;23;20062;-81
2022/06/01 09:02:45;;;;;;;6.25;3.30;;;;;;;15.43;60.83;101305.13;6503562;23;20380;-79
2022/06/01 09:05:31;;;;;;;10.03;3.90;;;;;;;16.13;59.15;101301.56;6506072;23;19996;-86
2022/06/01 09:08:32;;;;;;;5.72;3.20;;;;;;;16.48;57.30;101302.34;6492371;23;20004;-84
2022/06/01 09:11:13;;;;;;;8.20;3.22;;;;;;;16.16;54.44;101307.59;6519375;23;20000;-83
2022/06/01 09:14:05;;;;;;;5.30;2.50;;;;;;;16.07;55.64;101306.97;6505079;23;20030;-81
2022/06/01 09:16:42;;;;;;;5.53;3.13;;;;;;;15.94;56.20;101307.34;6504523;23;20333;-81
2022/06/01 09:19:19;;;;;;;5.70;3.40;;;;;;;15.85;55.98;101311.06;6501862;23;20007;-86
2022/06/01 09:24:50;;;;;;;6.78;3.78;;;;;;;16.27;56.24;101301.19;6500820;23;20016;-85
2022/06/01 09:27:43;;;;;;;4.10;3.33;;;;;;;16.63;57.07;101301.91;6500226;23;20012;-83
2022/06/01 09:30:25;;;;;;;;;;;;;;;17.00;55.15;101307.81;6500200;23;20155;-78
2022/06/01 09:33:22;;;;;;;7.25;4.60;;;;;;;16.74;57.75;101310.34;6499544;23;19908;-84
2022/06/01 09:35:56;;;;;;;10.93;4.95;;;;;;;16.98;56.26;101318.41;6501114;23;20315;-83
2022/06/01 09:38:39;;;;;;;7.18;3.92;;;;;;;17.25;55.65;101315.81;6499731;23;20567;-84
2022/06/01 09:41:23;;;;;;;9.07;4.68;;;;;;;17.08;56.06;101316.34;6499790;23;20352;-84
2022/06/01 09:44:00;;;;;;;6.78;4.80;;;;;;;16.94;55.94;101312.38;6499681;23;20024;-81
2022/06/01 09:46:58;;;;;;;9.38;4.50;;;;;;;16.81;57.35;101312.75;6499008;23;20039;-83
2022/06/01 09:49:36;;;;;;;3.95;2.45;;;;;;;16.33;57.25;101322.91;6499539;23;20280;-81
2022/06/01 09:52:17;;;;;;;4.10;2.67;;;;;;;16.62;59.61;101312.47;6501284;23;20341;-78
2022/06/01 09:54:55;;;;;;;2.85;2.47;;;;;;;16.75;58.71;101313.81;6501750;23;20381;-83
2022/06/01 09:57:38;;;;;;;5.38;2.95;;;;;;;16.73;59.82;101318.28;6501149;23;20095;-79
2022/06/01 10:06:25;;;;;;;2.05;1.70;;;;;;;16.06;56.58;101332.44;6499178;23;20012;-83
2022/06/01 10:09:10;;;;;;;5.30;2.23;;;;;;;15.42;57.62;101345.41;6499558;23;20004;-79
2022/06/01 10:11:48;;;;;;;5.72;2.88;;;;;;;14.67;63.87;101369.81;6499537;23;20245;-84
2022/06/01 10:14:37;;;;;;;6.32;3.80;;;;;;;14.36;69.08;101383.50;6501241;23;20008;-84
2022/06/01 10:17:24;;;;;;;5.80;4.32;;;;;;;13.62;71.37;101369.06;6498244;23;20732;-82
2022/06/01 10:20:04;;;;;;;7.70;4.47;;;;;;;13.31;75.64;101376.50;6497909;23;20449;-84
2022/06/01 10:23:03;;;;;;;8.05;4.72;;;;;;;13.07;75.70;101382.94;6497859;23;20004;-83
2022/06/01 10:25:44;;;;;;;7.20;5.35;;;;;;;12.66;76.32;101384.34;6498074;23;20012;-78
2022/06/01 10:28:21;;;;;;;9.50;4.97;;;;;;;12.46;80.87;101382.84;6501558;23;20013;-87
2022/06/01 10:30:58;;;;;;;5.47;4.43;;;;;;;12.34;80.95;101378.59;6501666;23;20031;-86
2022/06/01 10:33:56;;;;;;;6.53;3.95;;;;;;;12.37;80.49;101369.84;6501070;23;20083;-87
2022/06/01 10:36:38;;;;;;;7.78;5.22;;;;;;;12.61;81.63;101370.47;6500242;23;20023;-85
2022/06/01 10:39:18;;;;;;;8.13;4.55;;;;;;;12.93;80.28;101365.69;6504165;23;20022;-90
2022/06/01 10:42:04;;;;;;;5.28;4.15;;;;;;;13.18;79.82;101370.56;6506896;23;20047;-90
2022/06/01 10:44:44;;;;;;;6.43;4.07;;;;;;;13.72;79.60;101363.66;6507831;23;20008;-83
2022/06/01 10:47:25;;;;;;;5.32;3.58;;;;;;;15.82;73.41;101365.50;6479747;23;20009;-91
2022/06/01 10:50:16;;;;;;;8.13;3.35;;;;;;;18.74;60.32;101368.69;6507420;23;20008;-81
2022/06/01 10:53:01;;;;;;;3.90;2.60;;;;;;;19.78;57.61;101369.94;6511387;23;20015;-86
2022/06/01 10:55:39;;;;;;;4.13;2.38;;;;;;;18.33;56.06;101376.34;6488901;23;20016;-90
2022/06/01 10:58:21;;;;;;;5.25;2.78;;;;;;;17.83;57.68;101374.50;6505694;22;20004;-89
2022/06/01 11:01:15;;;;;;;4.22;2.60;;;;;;;17.85;62.07;101372.72;6510527;23;20012;-90
2022/06/01 11:03:58;;;;;;;5.03;2.85;;;;;;;16.55;59.57;101373.19;6509911;23;20008;-85
2022/06/01 11:07:03;;;;;;;4.63;2.85;;;;;;;15.73;62.82;101371.81;6505904;23;20008;-87
2022/06/01 11:09:34;;;;;;;6.70;3.17;;;;;;;15.42;65.45;101366.44;6504966;23;20015;-78
2022/06/01 11:12:36;;;;;;;4.53;2.93;;;;;;;15.56;66.30;101364.34;6502346;23;20445;-87
2022/06/01 11:15:40;;;;;;;3.97;2.63;;;;;;;14.70;65.28;101371.50;6503574;23;20004;-86
2022/06/01 11:18:41;;;;;;;3.58;2.88;;;;;;;14.07;68.77;101360.47;6382357;23;20021;-88
2022/06/01 11:21:31;;;;;;;3.67;2.20;;;;;;;14.71;68.58;101363.59;6377599;23;20398;-88
2022/06/01 11:24:29;;;;;;;4.28;3.00;;;;;;;15.45;67.01;101366.34;6377255;23;20044;-86
2022/06/01 11:27:04;;;;;;;3.92;2.58;;;;;;;15.42;64.21;101364.69;6377337;23;20416;-82
2022/06/01 11:29:55;;;;;;;4.25;2.30;;;;;;;16.06;60.49;101366.63;6380883;23;20052;-87
2022/06/01 11:32:57;;;;;;;4.18;2.20;;;;;;;17.71;57.52;101369.69;6382220;23;20126;-86
2022/06/01 11:35:36;;;;;;;3.58;2.00;;;;;;;18.75;53.43;101382.75;6345460;23;20033;-85
2022/06/01 11:38:16;;;;;;;2.13;1.70;;;;;;;18.30;51.89;101383.50;6345003;23;20081;-89
2022/06/01 11:40:56;;;;;;;3.17;1.33;;;;;;;18.95;48.98;101385.53;6345369;23;20033;-88
2022/06/01 11:43:47;;;;;;;3.00;1.80;;;;;;;21.20;41.48;101379.50;6343861;23;20065;-85
2022/06/01 11:46:25;;;;;;;2.90;1.73;;;;;;;19.54;43.88;101383.22;6344077;23;20054;-84
2022/06/01 11:49:04;;;;;;;1.48;1.33;;;;;;;18.78;46.94;101398.47;6343587;23;20010;-84
2022/06/01 11:51:36;;;;;;;3.20;2.25;;;;;;;18.40;49.39;101387.53;6343531;23;20376;-84
2022/06/01 11:54:15;;;;;;;4.93;2.40;;;;;;;20.11;46.75;101391.47;6378656;23;20021;-83
2022/06/01 11:56:52;;;;;;;2.17;1.70;;;;;;;21.97;42.68;101379.25;6403724;23;20025;-86
2022/06/01 11:59:33;;;;;;;3.00;2.28;;;;;;;23.24;39.08;101380.50;6403891;23;20019;-89
2022/06/01 12:02:20;;;;;;;6.05;2.92;;;;;;;23.70;38.42;101377.84;6404358;23;20013;-85
2022/06/01 12:04:55;;;;;;;4.15;2.10;;;;;;;24.74;39.25;101377.81;6404683;23;20073;-85
2022/06/01 12:07:39;;;;;;;3.33;2.28;;;;;;;23.74;36.44;101374.06;6404794;23;20140;-86
2022/06/01 12:10:32;;;;;;;4.32;2.30;;;;;;;23.54;38.28;101361.94;6413490;23;20020;-84
2022/06/01 12:13:22;;;;;;;4.70;2.22;;;;;;;22.96;38.17;101368.75;6479454;23;20157;-87
2022/06/01 12:16:26;;;;;;;2.70;1.80;;;;;;;23.22;39.67;101363.78;6500018;23;20166;-82
2022/06/01 12:19:19;;;;;;;3.97;2.20;;;;;;;22.23;38.83;101371.72;6372990;23;20014;-85
2022/06/01 12:21:58;;;;;;;3.75;2.47;;;;;;;20.08;43.69;101366.94;6372091;23;20032;-88